sensor_id;sensor_type;location;lat;lon;timestamp;P1;durP1;ratioP1;P2;durP2;ratioP2
75684;SDS011;64298;46.050;38.164;2023-04-15T00:02:12;13.05;;;7.93;;
75684;SDS011;64298;46.050;38.164;2023-04-15T00:05:01;17.42;;;9.13;;
75684;SDS011;64298;46.050;38.164;2023-04-15T00:07:29;20.77;;;8.55;;
75684;SDS011;64298;46.050;38.164;2023-04-15T00:09:56;23.65;;;8.02;;
75684;SDS011;64298;46.050;38.164;2023-04-15T00:12:26;15.35;;;7.97;;
75684;SDS011;64298;46.050;38.164;2023-04-15T00:14:52;16.60;;;8.45;;
75684;SDS011;64298;46.050;38.164;2023-04-15T00:17:21;15.95;;;7.63;;
75684;SDS011;64298;46.050;38.164;2023-04-15T00:19:49;17.08;;;8.65;;
75684;SDS011;64298;46.050;38.164;2023-04-15T00:22:15;19.08;;;9.57;;
75684;SDS011;64298;46.050;38.164;2023-04-15T00:24:44;22.58;;;9.48;;
75684;SDS011;64298;46.050;38.164;2023-04-15T00:27:10;16.42;;;8.77;;
75684;SDS011;64298;46.050;38.164;2023-04-15T00:29:39;16.33;;;8.32;;
75684;SDS011;64298;46.050;38.164;2023-04-15T00:32:08;18.80;;;8.57;;
75684;SDS011;64298;46.050;38.164;2023-04-15T00:34:34;19.88;;;9.43;;
75684;SDS011;64298;46.050;38.164;2023-04-15T00:37:08;18.70;;;8.98;;
75684;SDS011;64298;46.050;38.164;2023-04-15T00:39:34;17.10;;;9.35;;
75684;SDS011;64298;46.050;38.164;2023-04-15T00:42:19;17.98;;;9.05;;
75684;SDS011;64298;46.050;38.164;2023-04-15T00:44:46;17.20;;;8.57;;
75684;SDS011;64298;46.050;38.164;2023-04-15T00:47:15;20.20;;;8.85;;
75684;SDS011;64298;46.050;38.164;2023-04-15T00:49:41;17.52;;;8.45;;
75684;SDS011;64298;46.050;38.164;2023-04-15T00:52:07;16.08;;;8.65;;
75684;SDS011;64298;46.050;38.164;2023-04-15T00:54:36;16.00;;;7.75;;
75684;SDS011;64298;46.050;38.164;2023-04-15T00:57:05;19.48;;;7.50;;
75684;SDS011;64298;46.050;38.164;2023-04-15T00:59:32;17.50;;;9.05;;
75684;SDS011;64298;46.050;38.164;2023-04-15T01:02:03;15.60;;;8.75;;
75684;SDS011;64298;46.050;38.164;2023-04-15T01:04:34;19.52;;;8.10;;
75684;SDS011;64298;46.050;38.164;2023-04-15T01:07:03;19.33;;;10.07;;
75684;SDS011;64298;46.050;38.164;2023-04-15T01:09:32;16.95;;;8.27;;
75684;SDS011;64298;46.050;38.164;2023-04-15T01:12:01;14.70;;;8.00;;
75684;SDS011;64298;46.050;38.164;2023-04-15T01:14:28;17.00;;;8.18;;
75684;SDS011;64298;46.050;38.164;2023-04-15T01:16:55;19.85;;;8.75;;
75684;SDS011;64298;46.050;38.164;2023-04-15T01:19:21;15.88;;;8.43;;
75684;SDS011;64298;46.050;38.164;2023-04-15T01:21:49;15.00;;;7.63;;
75684;SDS011;64298;46.050;38.164;2023-04-15T01:24:16;15.13;;;7.03;;
75684;SDS011;64298;46.050;38.164;2023-04-15T01:26:48;18.17;;;7.60;;
75684;SDS011;64298;46.050;38.164;2023-04-15T01:29:17;15.35;;;7.85;;
75684;SDS011;64298;46.050;38.164;2023-04-15T01:31:50;16.63;;;8.10;;
75684;SDS011;64298;46.050;38.164;2023-04-15T01:34:18;13.88;;;8.02;;
75684;SDS011;64298;46.050;38.164;2023-04-15T01:36:54;15.98;;;7.53;;
75684;SDS011;64298;46.050;38.164;2023-04-15T01:39:25;14.18;;;7.60;;
75684;SDS011;64298;46.050;38.164;2023-04-15T01:41:55;16.00;;;7.63;;
75684;SDS011;64298;46.050;38.164;2023-04-15T01:44:23;16.98;;;8.20;;
75684;SDS011;64298;46.050;38.164;2023-04-15T01:46:49;15.93;;;8.90;;
75684;SDS011;64298;46.050;38.164;2023-04-15T01:49:15;18.30;;;9.55;;
75684;SDS011;64298;46.050;38.164;2023-04-15T01:51:41;17.75;;;8.80;;
75684;SDS011;64298;46.050;38.164;2023-04-15T01:54:11;16.60;;;8.63;;
75684;SDS011;64298;46.050;38.164;2023-04-15T01:56:43;16.10;;;8.27;;
75684;SDS011;64298;46.050;38.164;2023-04-15T01:59:11;19.20;;;8.95;;
75684;SDS011;64298;46.050;38.164;2023-04-15T02:01:39;15.63;;;8.20;;
75684;SDS011;64298;46.050;38.164;2023-04-15T02:04:18;15.40;;;8.27;;
75684;SDS011;64298;46.050;38.164;2023-04-15T02:06:53;12.90;;;6.53;;
75684;SDS011;64298;46.050;38.164;2023-04-15T02:09:20;12.23;;;7.13;;
75684;SDS011;64298;46.050;38.164;2023-04-15T02:11:46;16.52;;;8.02;;
75684;SDS011;64298;46.050;38.164;2023-04-15T02:14:14;20.65;;;9.35;;
75684;SDS011;64298;46.050;38.164;2023-04-15T02:16:43;11.70;;;6.10;;
75684;SDS011;64298;46.050;38.164;2023-04-15T02:19:09;14.30;;;7.10;;
75684;SDS011;64298;46.050;38.164;2023-04-15T02:21:56;14.32;;;8.52;;
75684;SDS011;64298;46.050;38.164;2023-04-15T02:24:26;12.50;;;7.50;;
75684;SDS011;64298;46.050;38.164;2023-04-15T02:26:55;12.15;;;6.38;;
75684;SDS011;64298;46.050;38.164;2023-04-15T02:29:21;13.50;;;7.25;;
75684;SDS011;64298;46.050;38.164;2023-04-15T02:31:55;13.90;;;8.15;;
75684;SDS011;64298;46.050;38.164;2023-04-15T02:34:21;13.13;;;7.47;;
75684;SDS011;64298;46.050;38.164;2023-04-15T02:36:51;12.85;;;7.40;;
75684;SDS011;64298;46.050;38.164;2023-04-15T02:39:22;13.07;;;7.22;;
75684;SDS011;64298;46.050;38.164;2023-04-15T02:41:49;15.07;;;7.22;;
75684;SDS011;64298;46.050;38.164;2023-04-15T02:44:24;10.80;;;5.10;;
75684;SDS011;64298;46.050;38.164;2023-04-15T02:46:54;7.93;;;5.22;;
75684;SDS011;64298;46.050;38.164;2023-04-15T02:49:25;7.72;;;4.32;;
75684;SDS011;64298;46.050;38.164;2023-04-15T02:51:56;9.35;;;5.35;;
75684;SDS011;64298;46.050;38.164;2023-04-15T02:54:27;7.10;;;4.30;;
75684;SDS011;64298;46.050;38.164;2023-04-15T02:57:00;10.43;;;4.20;;
75684;SDS011;64298;46.050;38.164;2023-04-15T02:59:29;8.70;;;4.43;;
75684;SDS011;64298;46.050;38.164;2023-04-15T03:01:58;7.75;;;4.50;;
75684;SDS011;64298;46.050;38.164;2023-04-15T03:04:27;7.65;;;4.15;;
75684;SDS011;64298;46.050;38.164;2023-04-15T03:06:57;8.70;;;3.83;;
75684;SDS011;64298;46.050;38.164;2023-04-15T03:09:24;7.25;;;3.42;;
75684;SDS011;64298;46.050;38.164;2023-04-15T03:11:52;7.38;;;4.05;;
75684;SDS011;64298;46.050;38.164;2023-04-15T03:14:23;5.85;;;3.22;;
75684;SDS011;64298;46.050;38.164;2023-04-15T03:16:50;6.05;;;3.15;;
75684;SDS011;64298;46.050;38.164;2023-04-15T03:19:23;6.32;;;3.67;;
75684;SDS011;64298;46.050;38.164;2023-04-15T03:22:00;6.82;;;3.97;;
75684;SDS011;64298;46.050;38.164;2023-04-15T03:24:25;5.75;;;3.20;;
75684;SDS011;64298;46.050;38.164;2023-04-15T03:26:55;8.60;;;4.07;;
75684;SDS011;64298;46.050;38.164;2023-04-15T03:29:22;9.77;;;4.78;;
75684;SDS011;64298;46.050;38.164;2023-04-15T03:31:51;6.82;;;4.25;;
75684;SDS011;64298;46.050;38.164;2023-04-15T03:34:17;8.85;;;4.60;;
75684;SDS011;64298;46.050;38.164;2023-04-15T03:36:46;8.20;;;3.83;;
75684;SDS011;64298;46.050;38.164;2023-04-15T03:39:12;8.93;;;4.50;;
75684;SDS011;64298;46.050;38.164;2023-04-15T03:41:41;8.05;;;4.13;;
75684;SDS011;64298;46.050;38.164;2023-04-15T03:44:07;10.55;;;5.13;;
75684;SDS011;64298;46.050;38.164;2023-04-15T03:46:38;10.43;;;5.03;;
75684;SDS011;64298;46.050;38.164;2023-04-15T03:49:05;8.63;;;4.75;;
75684;SDS011;64298;46.050;38.164;2023-04-15T03:51:31;9.20;;;5.22;;
75684;SDS011;64298;46.050;38.164;2023-04-15T03:54:00;8.20;;;4.70;;
75684;SDS011;64298;46.050;38.164;2023-04-15T03:56:33;9.82;;;4.68;;
75684;SDS011;64298;46.050;38.164;2023-04-15T03:59:04;11.68;;;4.53;;
75684;SDS011;64298;46.050;38.164;2023-04-15T04:01:35;10.55;;;5.55;;
75684;SDS011;64298;46.050;38.164;2023-04-15T04:04:01;9.52;;;4.68;;
75684;SDS011;64298;46.050;38.164;2023-04-15T04:06:27;8.25;;;4.80;;
75684;SDS011;64298;46.050;38.164;2023-04-15T04:08:54;10.77;;;5.00;;
75684;SDS011;64298;46.050;38.164;2023-04-15T04:11:23;8.85;;;4.75;;
75684;SDS011;64298;46.050;38.164;2023-04-15T04:13:51;5.45;;;2.70;;
75684;SDS011;64298;46.050;38.164;2023-04-15T04:16:20;10.20;;;5.13;;
75684;SDS011;64298;46.050;38.164;2023-04-15T04:18:46;8.65;;;4.32;;
75684;SDS011;64298;46.050;38.164;2023-04-15T04:21:14;12.35;;;4.70;;
75684;SDS011;64298;46.050;38.164;2023-04-15T04:23:44;8.00;;;4.97;;
75684;SDS011;64298;46.050;38.164;2023-04-15T04:26:13;6.75;;;3.28;;
75684;SDS011;64298;46.050;38.164;2023-04-15T04:28:39;8.15;;;4.18;;
75684;SDS011;64298;46.050;38.164;2023-04-15T04:31:05;11.27;;;5.15;;
75684;SDS011;64298;46.050;38.164;2023-04-15T04:33:33;9.57;;;4.97;;
75684;SDS011;64298;46.050;38.164;2023-04-15T04:36:04;9.65;;;4.80;;
75684;SDS011;64298;46.050;38.164;2023-04-15T04:38:30;9.70;;;4.90;;
75684;SDS011;64298;46.050;38.164;2023-04-15T04:40:56;10.80;;;5.90;;
75684;SDS011;64298;46.050;38.164;2023-04-15T04:43:22;8.90;;;4.95;;
75684;SDS011;64298;46.050;38.164;2023-04-15T04:45:51;8.75;;;4.97;;
75684;SDS011;64298;46.050;38.164;2023-04-15T04:48:17;10.50;;;5.13;;
75684;SDS011;64298;46.050;38.164;2023-04-15T04:50:45;7.68;;;3.33;;
75684;SDS011;64298;46.050;38.164;2023-04-15T04:53:11;10.00;;;4.97;;
75684;SDS011;64298;46.050;38.164;2023-04-15T04:55:40;7.18;;;3.92;;
75684;SDS011;64298;46.050;38.164;2023-04-15T04:58:09;10.82;;;5.50;;
75684;SDS011;64298;46.050;38.164;2023-04-15T05:00:35;13.65;;;6.07;;
75684;SDS011;64298;46.050;38.164;2023-04-15T05:03:21;7.63;;;3.85;;
75684;SDS011;64298;46.050;38.164;2023-04-15T05:05:47;9.40;;;5.07;;
75684;SDS011;64298;46.050;38.164;2023-04-15T05:08:16;11.02;;;5.50;;
75684;SDS011;64298;46.050;38.164;2023-04-15T05:10:42;18.23;;;6.18;;
75684;SDS011;64298;46.050;38.164;2023-04-15T05:13:11;11.82;;;6.57;;
75684;SDS011;64298;46.050;38.164;2023-04-15T05:15:39;11.27;;;5.80;;
75684;SDS011;64298;46.050;38.164;2023-04-15T05:18:10;11.95;;;6.68;;
75684;SDS011;64298;46.050;38.164;2023-04-15T05:20:36;14.02;;;7.13;;
75684;SDS011;64298;46.050;38.164;2023-04-15T05:23:05;12.18;;;6.70;;
75684;SDS011;64298;46.050;38.164;2023-04-15T05:25:34;17.55;;;7.90;;
75684;SDS011;64298;46.050;38.164;2023-04-15T05:28:00;19.27;;;9.63;;
75684;SDS011;64298;46.050;38.164;2023-04-15T05:30:26;15.57;;;8.73;;
75684;SDS011;64298;46.050;38.164;2023-04-15T05:32:58;17.27;;;8.07;;
75684;SDS011;64298;46.050;38.164;2023-04-15T05:35:26;17.95;;;9.35;;
75684;SDS011;64298;46.050;38.164;2023-04-15T05:37:52;20.30;;;9.50;;
75684;SDS011;64298;46.050;38.164;2023-04-15T05:40:18;20.25;;;9.50;;
75684;SDS011;64298;46.050;38.164;2023-04-15T05:42:44;19.83;;;8.98;;
75684;SDS011;64298;46.050;38.164;2023-04-15T05:45:13;26.75;;;11.95;;
75684;SDS011;64298;46.050;38.164;2023-04-15T05:47:39;26.05;;;12.07;;
75684;SDS011;64298;46.050;38.164;2023-04-15T05:50:08;29.42;;;12.43;;
75684;SDS011;64298;46.050;38.164;2023-04-15T05:52:34;20.20;;;10.18;;
75684;SDS011;64298;46.050;38.164;2023-04-15T05:55:00;31.67;;;13.02;;
75684;SDS011;64298;46.050;38.164;2023-04-15T05:57:26;28.25;;;14.88;;
75684;SDS011;64298;46.050;38.164;2023-04-15T05:59:54;33.50;;;14.55;;
75684;SDS011;64298;46.050;38.164;2023-04-15T06:02:21;24.67;;;12.68;;
75684;SDS011;64298;46.050;38.164;2023-04-15T06:04:47;32.67;;;14.05;;
75684;SDS011;64298;46.050;38.164;2023-04-15T06:07:16;30.65;;;13.93;;
75684;SDS011;64298;46.050;38.164;2023-04-15T06:09:45;29.75;;;13.30;;
75684;SDS011;64298;46.050;38.164;2023-04-15T06:12:14;27.08;;;12.13;;
75684;SDS011;64298;46.050;38.164;2023-04-15T06:14:46;24.80;;;12.25;;
75684;SDS011;64298;46.050;38.164;2023-04-15T06:17:12;24.63;;;11.98;;
75684;SDS011;64298;46.050;38.164;2023-04-15T06:19:42;31.40;;;12.95;;
75684;SDS011;64298;46.050;38.164;2023-04-15T06:22:08;26.10;;;11.73;;
75684;SDS011;64298;46.050;38.164;2023-04-15T06:24:34;27.45;;;12.90;;
75684;SDS011;64298;46.050;38.164;2023-04-15T06:27:03;22.50;;;11.63;;
75684;SDS011;64298;46.050;38.164;2023-04-15T06:29:32;23.92;;;10.40;;
75684;SDS011;64298;46.050;38.164;2023-04-15T06:32:01;19.45;;;9.95;;
75684;SDS011;64298;46.050;38.164;2023-04-15T06:34:30;21.95;;;10.32;;
75684;SDS011;64298;46.050;38.164;2023-04-15T06:36:56;25.20;;;11.02;;
75684;SDS011;64298;46.050;38.164;2023-04-15T06:39:27;19.75;;;8.48;;
75684;SDS011;64298;46.050;38.164;2023-04-15T06:41:57;21.70;;;9.38;;
75684;SDS011;64298;46.050;38.164;2023-04-15T06:44:52;21.02;;;10.70;;
75684;SDS011;64298;46.050;38.164;2023-04-15T06:47:18;25.30;;;11.30;;
75684;SDS011;64298;46.050;38.164;2023-04-15T06:49:44;17.73;;;9.00;;
75684;SDS011;64298;46.050;38.164;2023-04-15T06:52:13;17.60;;;8.57;;
75684;SDS011;64298;46.050;38.164;2023-04-15T06:54:44;16.35;;;7.40;;
75684;SDS011;64298;46.050;38.164;2023-04-15T06:57:15;15.65;;;6.15;;
75684;SDS011;64298;46.050;38.164;2023-04-15T06:59:43;17.38;;;8.55;;
75684;SDS011;64298;46.050;38.164;2023-04-15T07:02:17;19.27;;;7.93;;
75684;SDS011;64298;46.050;38.164;2023-04-15T07:04:47;14.57;;;7.75;;
75684;SDS011;64298;46.050;38.164;2023-04-15T07:07:14;17.65;;;8.38;;
75684;SDS011;64298;46.050;38.164;2023-04-15T07:09:42;17.42;;;8.77;;
75684;SDS011;64298;46.050;38.164;2023-04-15T07:12:08;17.98;;;8.73;;
75684;SDS011;64298;46.050;38.164;2023-04-15T07:14:36;18.42;;;9.00;;
75684;SDS011;64298;46.050;38.164;2023-04-15T07:17:05;16.17;;;7.97;;
75684;SDS011;64298;46.050;38.164;2023-04-15T07:19:31;16.52;;;7.85;;
75684;SDS011;64298;46.050;38.164;2023-04-15T07:21:57;13.80;;;6.95;;
75684;SDS011;64298;46.050;38.164;2023-04-15T07:24:23;15.95;;;7.60;;
75684;SDS011;64298;46.050;38.164;2023-04-15T07:34:36;15.25;;;6.43;;
75684;SDS011;64298;46.050;38.164;2023-04-15T07:37:04;16.08;;;5.75;;
75684;SDS011;64298;46.050;38.164;2023-04-15T07:39:35;15.77;;;7.78;;
75684;SDS011;64298;46.050;38.164;2023-04-15T07:42:20;14.10;;;6.60;;
75684;SDS011;64298;46.050;38.164;2023-04-15T07:44:48;16.38;;;6.45;;
75684;SDS011;64298;46.050;38.164;2023-04-15T07:47:17;13.40;;;6.35;;
75684;SDS011;64298;46.050;38.164;2023-04-15T07:50:01;13.27;;;5.65;;
75684;SDS011;64298;46.050;38.164;2023-04-15T07:52:32;11.98;;;5.53;;
75684;SDS011;64298;46.050;38.164;2023-04-15T07:55:21;11.88;;;4.70;;
75684;SDS011;64298;46.050;38.164;2023-04-15T07:57:54;13.35;;;6.13;;
75684;SDS011;64298;46.050;38.164;2023-04-15T08:00:21;21.85;;;6.43;;
75684;SDS011;64298;46.050;38.164;2023-04-15T08:02:53;10.93;;;5.28;;
75684;SDS011;64298;46.050;38.164;2023-04-15T08:05:21;12.15;;;4.28;;
75684;SDS011;64298;46.050;38.164;2023-04-15T08:07:47;8.65;;;4.68;;
75684;SDS011;64298;46.050;38.164;2023-04-15T08:10:16;8.85;;;4.32;;
75684;SDS011;64298;46.050;38.164;2023-04-15T08:12:45;9.38;;;4.63;;
75684;SDS011;64298;46.050;38.164;2023-04-15T08:15:14;10.45;;;4.20;;
75684;SDS011;64298;46.050;38.164;2023-04-15T08:17:39;10.48;;;4.53;;
75684;SDS011;64298;46.050;38.164;2023-04-15T08:20:27;9.10;;;4.13;;
75684;SDS011;64298;46.050;38.164;2023-04-15T08:23:11;8.82;;;3.40;;
75684;SDS011;64298;46.050;38.164;2023-04-15T08:26:49;12.85;;;4.90;;
75684;SDS011;64298;46.050;38.164;2023-04-15T08:29:15;10.40;;;4.05;;
75684;SDS011;64298;46.050;38.164;2023-04-15T08:35:40;9.30;;;4.05;;
75684;SDS011;64298;46.050;38.164;2023-04-15T08:38:06;8.02;;;3.75;;
75684;SDS011;64298;46.050;38.164;2023-04-15T08:40:42;9.13;;;3.90;;
75684;SDS011;64298;46.050;38.164;2023-04-15T08:43:37;11.85;;;4.07;;
75684;SDS011;64298;46.050;38.164;2023-04-15T08:46:22;9.07;;;2.97;;
75684;SDS011;64298;46.050;38.164;2023-04-15T08:48:48;8.25;;;3.30;;
75684;SDS011;64298;46.050;38.164;2023-04-15T08:51:27;7.25;;;3.38;;
75684;SDS011;64298;46.050;38.164;2023-04-15T08:53:53;9.30;;;3.45;;
75684;SDS011;64298;46.050;38.164;2023-04-15T09:00:50;8.30;;;3.13;;
75684;SDS011;64298;46.050;38.164;2023-04-15T09:06:20;7.53;;;3.25;;
75684;SDS011;64298;46.050;38.164;2023-04-15T09:08:52;6.65;;;2.85;;
75684;SDS011;64298;46.050;38.164;2023-04-15T09:12:36;8.38;;;4.35;;
75684;SDS011;64298;46.050;38.164;2023-04-15T09:15:02;8.88;;;3.20;;
75684;SDS011;64298;46.050;38.164;2023-04-15T09:17:41;9.15;;;4.20;;
75684;SDS011;64298;46.050;38.164;2023-04-15T09:20:28;6.78;;;2.90;;
75684;SDS011;64298;46.050;38.164;2023-04-15T09:23:57;5.43;;;2.53;;
75684;SDS011;64298;46.050;38.164;2023-04-15T09:26:43;8.52;;;3.15;;
75684;SDS011;64298;46.050;38.164;2023-04-15T09:29:09;7.82;;;3.38;;
75684;SDS011;64298;46.050;38.164;2023-04-15T09:38:53;5.95;;;3.25;;
75684;SDS011;64298;46.050;38.164;2023-04-15T09:42:29;8.65;;;3.60;;
75684;SDS011;64298;46.050;38.164;2023-04-15T09:52:16;7.63;;;3.40;;
75684;SDS011;64298;46.050;38.164;2023-04-15T09:54:46;7.95;;;3.13;;
75684;SDS011;64298;46.050;38.164;2023-04-15T09:57:17;7.97;;;3.10;;
75684;SDS011;64298;46.050;38.164;2023-04-15T09:59:50;7.90;;;3.47;;
75684;SDS011;64298;46.050;38.164;2023-04-15T10:02:22;6.90;;;2.90;;
75684;SDS011;64298;46.050;38.164;2023-04-15T10:04:51;7.20;;;3.70;;
75684;SDS011;64298;46.050;38.164;2023-04-15T10:07:19;8.63;;;2.63;;
75684;SDS011;64298;46.050;38.164;2023-04-15T10:09:50;8.05;;;3.60;;
75684;SDS011;64298;46.050;38.164;2023-04-15T10:12:18;8.15;;;3.20;;
75684;SDS011;64298;46.050;38.164;2023-04-15T10:14:58;9.20;;;3.42;;
75684;SDS011;64298;46.050;38.164;2023-04-15T10:17:40;7.25;;;3.38;;
75684;SDS011;64298;46.050;38.164;2023-04-15T10:20:12;7.25;;;3.83;;
75684;SDS011;64298;46.050;38.164;2023-04-15T10:22:46;7.75;;;3.53;;
75684;SDS011;64298;46.050;38.164;2023-04-15T10:25:25;7.63;;;4.10;;
75684;SDS011;64298;46.050;38.164;2023-04-15T10:27:56;6.05;;;2.72;;
75684;SDS011;64298;46.050;38.164;2023-04-15T10:30:35;7.80;;;3.95;;
75684;SDS011;64298;46.050;38.164;2023-04-15T10:33:13;6.95;;;3.30;;
75684;SDS011;64298;46.050;38.164;2023-04-15T10:35:45;6.85;;;3.80;;
75684;SDS011;64298;46.050;38.164;2023-04-15T10:38:35;7.80;;;2.78;;
75684;SDS011;64298;46.050;38.164;2023-04-15T10:43:52;6.18;;;2.83;;
75684;SDS011;64298;46.050;38.164;2023-04-15T10:49:28;6.97;;;3.40;;
75684;SDS011;64298;46.050;38.164;2023-04-15T10:51:59;6.57;;;3.40;;
75684;SDS011;64298;46.050;38.164;2023-04-15T10:54:31;7.68;;;3.47;;
75684;SDS011;64298;46.050;38.164;2023-04-15T10:59:34;7.97;;;3.05;;
75684;SDS011;64298;46.050;38.164;2023-04-15T11:02:05;7.07;;;3.22;;
75684;SDS011;64298;46.050;38.164;2023-04-15T11:05:16;6.97;;;2.95;;
75684;SDS011;64298;46.050;38.164;2023-04-15T11:07:52;5.22;;;2.10;;
75684;SDS011;64298;46.050;38.164;2023-04-15T11:13:17;7.40;;;3.40;;
75684;SDS011;64298;46.050;38.164;2023-04-15T11:16:00;7.40;;;3.63;;
75684;SDS011;64298;46.050;38.164;2023-04-15T11:18:32;5.13;;;2.45;;
75684;SDS011;64298;46.050;38.164;2023-04-15T11:21:05;5.93;;;2.97;;
75684;SDS011;64298;46.050;38.164;2023-04-15T11:23:39;6.07;;;3.08;;
75684;SDS011;64298;46.050;38.164;2023-04-15T11:26:16;7.55;;;3.60;;
75684;SDS011;64298;46.050;38.164;2023-04-15T11:28:43;6.20;;;3.47;;
75684;SDS011;64298;46.050;38.164;2023-04-15T11:31:17;6.70;;;3.50;;
75684;SDS011;64298;46.050;38.164;2023-04-15T11:36:22;8.15;;;3.28;;
75684;SDS011;64298;46.050;38.164;2023-04-15T11:38:58;8.50;;;5.80;;
75684;SDS011;64298;46.050;38.164;2023-04-15T11:41:40;7.45;;;3.38;;
75684;SDS011;64298;46.050;38.164;2023-04-15T11:44:26;6.88;;;3.28;;
75684;SDS011;64298;46.050;38.164;2023-04-15T11:46:59;8.15;;;4.28;;
75684;SDS011;64298;46.050;38.164;2023-04-15T11:49:28;9.68;;;3.97;;
75684;SDS011;64298;46.050;38.164;2023-04-15T11:51:58;6.13;;;3.88;;
75684;SDS011;64298;46.050;38.164;2023-04-15T11:54:29;6.60;;;3.03;;
75684;SDS011;64298;46.050;38.164;2023-04-15T11:57:29;8.25;;;3.53;;
75684;SDS011;64298;46.050;38.164;2023-04-15T12:00:00;5.78;;;3.55;;
75684;SDS011;64298;46.050;38.164;2023-04-15T12:02:31;5.90;;;3.30;;
75684;SDS011;64298;46.050;38.164;2023-04-15T12:05:09;6.13;;;3.55;;
75684;SDS011;64298;46.050;38.164;2023-04-15T12:11:49;5.20;;;2.88;;
75684;SDS011;64298;46.050;38.164;2023-04-15T12:14:45;6.47;;;3.50;;
75684;SDS011;64298;46.050;38.164;2023-04-15T12:17:23;4.80;;;2.50;;
75684;SDS011;64298;46.050;38.164;2023-04-15T12:20:46;5.20;;;2.78;;
75684;SDS011;64298;46.050;38.164;2023-04-15T12:23:19;7.25;;;3.60;;
75684;SDS011;64298;46.050;38.164;2023-04-15T12:25:58;5.50;;;2.60;;
75684;SDS011;64298;46.050;38.164;2023-04-15T12:28:35;4.70;;;2.30;;
75684;SDS011;64298;46.050;38.164;2023-04-15T12:31:10;7.47;;;3.53;;
75684;SDS011;64298;46.050;38.164;2023-04-15T12:33:54;5.47;;;2.72;;
75684;SDS011;64298;46.050;38.164;2023-04-15T12:36:28;3.97;;;1.70;;
75684;SDS011;64298;46.050;38.164;2023-04-15T12:39:07;4.15;;;2.08;;
75684;SDS011;64298;46.050;38.164;2023-04-15T12:41:56;3.75;;;1.58;;
75684;SDS011;64298;46.050;38.164;2023-04-15T12:44:29;4.45;;;2.33;;
75684;SDS011;64298;46.050;38.164;2023-04-15T12:47:10;4.90;;;2.10;;
75684;SDS011;64298;46.050;38.164;2023-04-15T12:49:46;4.88;;;2.10;;
75684;SDS011;64298;46.050;38.164;2023-04-15T12:52:14;7.07;;;2.85;;
75684;SDS011;64298;46.050;38.164;2023-04-15T12:54:42;3.85;;;1.85;;
75684;SDS011;64298;46.050;38.164;2023-04-15T12:57:10;6.78;;;1.85;;
75684;SDS011;64298;46.050;38.164;2023-04-15T12:59:40;4.03;;;1.70;;
75684;SDS011;64298;46.050;38.164;2023-04-15T13:02:09;7.35;;;2.83;;
75684;SDS011;64298;46.050;38.164;2023-04-15T13:04:37;7.68;;;3.63;;
75684;SDS011;64298;46.050;38.164;2023-04-15T13:13:23;4.70;;;2.35;;
75684;SDS011;64298;46.050;38.164;2023-04-15T13:15:52;6.63;;;2.50;;
75684;SDS011;64298;46.050;38.164;2023-04-15T13:18:26;5.70;;;2.45;;
75684;SDS011;64298;46.050;38.164;2023-04-15T13:21:16;7.43;;;2.88;;
75684;SDS011;64298;46.050;38.164;2023-04-15T13:23:53;5.03;;;2.90;;
75684;SDS011;64298;46.050;38.164;2023-04-15T13:26:24;4.32;;;2.17;;
75684;SDS011;64298;46.050;38.164;2023-04-15T13:32:28;5.82;;;2.78;;
75684;SDS011;64298;46.050;38.164;2023-04-15T13:34:57;5.00;;;2.47;;
75684;SDS011;64298;46.050;38.164;2023-04-15T13:37:29;5.28;;;2.70;;
75684;SDS011;64298;46.050;38.164;2023-04-15T13:40:01;6.82;;;1.88;;
75684;SDS011;64298;46.050;38.164;2023-04-15T13:42:53;4.57;;;1.98;;
75684;SDS011;64298;46.050;38.164;2023-04-15T13:48:38;7.18;;;2.30;;
75684;SDS011;64298;46.050;38.164;2023-04-15T13:51:12;7.03;;;2.20;;
75684;SDS011;64298;46.050;38.164;2023-04-15T13:53:48;9.10;;;2.55;;
75684;SDS011;64298;46.050;38.164;2023-04-15T13:56:14;5.75;;;2.40;;
75684;SDS011;64298;46.050;38.164;2023-04-15T13:59:10;5.90;;;2.60;;
75684;SDS011;64298;46.050;38.164;2023-04-15T14:01:42;4.97;;;2.53;;
75684;SDS011;64298;46.050;38.164;2023-04-15T14:04:23;5.07;;;2.25;;
75684;SDS011;64298;46.050;38.164;2023-04-15T14:06:58;5.72;;;1.40;;
75684;SDS011;64298;46.050;38.164;2023-04-15T14:09:34;4.00;;;2.00;;
75684;SDS011;64298;46.050;38.164;2023-04-15T14:12:01;4.90;;;2.60;;
75684;SDS011;64298;46.050;38.164;2023-04-15T14:14:33;4.75;;;2.08;;
75684;SDS011;64298;46.050;38.164;2023-04-15T14:20:19;4.93;;;2.47;;
75684;SDS011;64298;46.050;38.164;2023-04-15T14:25:50;5.25;;;2.40;;
75684;SDS011;64298;46.050;38.164;2023-04-15T14:28:22;5.53;;;2.50;;
75684;SDS011;64298;46.050;38.164;2023-04-15T14:30:52;9.10;;;3.30;;
75684;SDS011;64298;46.050;38.164;2023-04-15T14:33:18;5.22;;;2.38;;
75684;SDS011;64298;46.050;38.164;2023-04-15T14:35:53;9.43;;;4.43;;
75684;SDS011;64298;46.050;38.164;2023-04-15T14:38:27;4.68;;;2.22;;
75684;SDS011;64298;46.050;38.164;2023-04-15T14:40:53;5.05;;;2.38;;
75684;SDS011;64298;46.050;38.164;2023-04-15T14:43:23;4.90;;;2.30;;
75684;SDS011;64298;46.050;38.164;2023-04-15T14:46:12;5.53;;;2.45;;
75684;SDS011;64298;46.050;38.164;2023-04-15T14:52:27;5.13;;;3.10;;
75684;SDS011;64298;46.050;38.164;2023-04-15T14:55:14;5.85;;;2.42;;
75684;SDS011;64298;46.050;38.164;2023-04-15T14:58:07;6.20;;;2.22;;
75684;SDS011;64298;46.050;38.164;2023-04-15T15:00:43;7.57;;;2.75;;
75684;SDS011;64298;46.050;38.164;2023-04-15T15:03:19;4.50;;;2.13;;
75684;SDS011;64298;46.050;38.164;2023-04-15T15:05:56;5.63;;;2.50;;
75684;SDS011;64298;46.050;38.164;2023-04-15T15:08:28;7.97;;;2.40;;
75684;SDS011;64298;46.050;38.164;2023-04-15T15:11:18;7.13;;;2.10;;
75684;SDS011;64298;46.050;38.164;2023-04-15T15:13:46;4.65;;;2.47;;
75684;SDS011;64298;46.050;38.164;2023-04-15T15:16:24;2.50;;;1.35;;
75684;SDS011;64298;46.050;38.164;2023-04-15T15:19:45;6.30;;;2.13;;
75684;SDS011;64298;46.050;38.164;2023-04-15T15:25:24;4.00;;;2.40;;
75684;SDS011;64298;46.050;38.164;2023-04-15T15:27:53;4.68;;;2.50;;
75684;SDS011;64298;46.050;38.164;2023-04-15T15:30:22;6.47;;;2.35;;
75684;SDS011;64298;46.050;38.164;2023-04-15T15:32:55;6.63;;;1.65;;
75684;SDS011;64298;46.050;38.164;2023-04-15T15:35:24;5.22;;;2.30;;
75684;SDS011;64298;46.050;38.164;2023-04-15T15:38:04;5.72;;;2.13;;
75684;SDS011;64298;46.050;38.164;2023-04-15T15:40:31;5.50;;;2.30;;
75684;SDS011;64298;46.050;38.164;2023-04-15T15:43:03;6.15;;;1.98;;
75684;SDS011;64298;46.050;38.164;2023-04-15T15:45:39;4.72;;;2.33;;
75684;SDS011;64298;46.050;38.164;2023-04-15T15:48:09;6.65;;;3.28;;
75684;SDS011;64298;46.050;38.164;2023-04-15T15:50:48;7.15;;;2.63;;
75684;SDS011;64298;46.050;38.164;2023-04-15T15:53:26;5.05;;;2.70;;
75684;SDS011;64298;46.050;38.164;2023-04-15T15:55:52;3.97;;;1.58;;
75684;SDS011;64298;46.050;38.164;2023-04-15T15:58:36;4.32;;;2.50;;
75684;SDS011;64298;46.050;38.164;2023-04-15T16:02:16;4.85;;;2.45;;
75684;SDS011;64298;46.050;38.164;2023-04-15T16:04:57;5.95;;;2.50;;
75684;SDS011;64298;46.050;38.164;2023-04-15T16:07:31;7.80;;;2.58;;
75684;SDS011;64298;46.050;38.164;2023-04-15T16:10:01;6.72;;;3.03;;
75684;SDS011;64298;46.050;38.164;2023-04-15T16:12:52;7.68;;;2.83;;
75684;SDS011;64298;46.050;38.164;2023-04-15T16:15:27;5.50;;;2.67;;
75684;SDS011;64298;46.050;38.164;2023-04-15T16:17:56;8.80;;;3.50;;
75684;SDS011;64298;46.050;38.164;2023-04-15T16:20:25;8.50;;;2.63;;